Time;durP1;ratioP1;P1;durP2;ratioP2;P2;SDS_P1;SDS_P2;PMS_P1;PMS_P2;Temp;Humidity;BMP_temperature;BMP_pressure;BME280_temperature;BME280_humidity;BME280_pressure;Samples;Min_cycle;Max_cycle;Signal;HPM_P1;HPM_P2
2023/03/21 00:00:39;;;;;;;6.05;2.78;;;;;;;10.38;76.88;99681.69;5007377;28;20099;-50
2023/03/21 00:03:07;;;;;;;9.32;3.25;;;;;;;10.39;77.02;99683.38;5001525;28;20140;-50
2023/03/21 00:05:40;;;;;;;5.05;2.20;;;;;;;10.41;76.48;99677.31;5005411;28;20371;-52
2023/03/21 00:08:07;;;;;;;6.43;2.97;;;;;;;10.39;77.24;99673.03;5002446;28;20137;-50
2023/03/21 00:10:34;;;;;;;9.07;2.90;;;;;;;10.37;76.76;99674.78;5001101;28;20038;-48
2023/03/21 00:13:11;;;;;;;8.73;3.67;;;;;;;10.38;77.38;99672.19;5000857;28;20576;-51
2023/03/21 00:15:49;;;;;;;5.05;2.88;;;;;;;10.32;76.70;99673.94;4999612;28;20157;-50
2023/03/21 00:18:35;;;;;;;7.03;3.15;;;;;;;10.33;76.63;99673.09;4998616;28;20054;-50
2023/03/21 00:21:04;;;;;;;6.45;4.00;;;;;;;10.35;76.55;99676.53;4996691;28;20114;-49
2023/03/21 00:23:50;;;;;;;6.45;2.22;;;;;;;10.34;77.32;99657.53;4997622;28;20425;-52
2023/03/21 00:26:17;;;;;;;5.05;3.55;;;;;;;10.34;77.44;99664.47;4998643;28;20046;-48
2023/03/21 00:28:43;;;;;;;6.43;3.15;;;;;;;10.34;76.39;99665.28;4999162;28;20132;-49
2023/03/21 00:31:10;;;;;;;6.45;1.58;;;;;;;10.33;76.82;99654.97;4998993;28;20957;-49
2023/03/21 00:33:38;;;;;;;6.47;3.65;;;;;;;10.36;76.99;99652.34;5001943;28;20089;-49
2023/03/21 00:36:06;;;;;;;5.32;3.25;;;;;;;10.36;76.30;99650.63;5008901;28;20077;-49
2023/03/21 00:38:34;;;;;;;4.95;2.72;;;;;;;10.37;76.89;99656.66;5002052;28;20044;-49
2023/03/21 00:41:04;;;;;;;6.00;3.67;;;;;;;10.39;76.94;99648.00;5007338;28;20042;-48
2023/03/21 00:43:48;;;;;;;8.40;4.07;;;;;;;10.35;76.44;99651.50;5007291;28;20536;-49
2023/03/21 00:46:15;;;;;;;7.35;3.33;;;;;;;10.33;77.12;99644.63;5004425;28;20555;-49
2023/03/21 00:48:42;;;;;;;3.42;1.50;;;;;;;10.35;77.21;99645.47;5004178;28;20562;-49
2023/03/21 00:51:14;;;;;;;5.40;2.15;;;;;;;10.34;76.93;99633.41;5007002;28;20104;-49
2023/03/21 00:53:41;;;;;;;6.65;3.65;;;;;;;10.34;76.92;99639.41;5004249;28;20057;-51
2023/03/21 00:56:08;;;;;;;10.55;2.92;;;;;;;10.36;76.97;99637.69;5006971;28;20065;-49
2023/03/21 00:58:35;;;;;;;6.85;2.70;;;;;;;10.34;76.69;99638.56;5008502;28;20058;-49
2023/03/21 01:01:03;;;;;;;5.28;2.75;;;;;;;10.34;76.68;99633.41;5009274;28;20041;-49
2023/03/21 01:03:30;;;;;;;6.22;3.05;;;;;;;10.32;76.21;99615.28;5005645;28;20053;-50
2023/03/21 01:06:04;;;;;;;3.95;2.92;;;;;;;10.30;76.67;99606.66;5010448;28;20131;-50
2023/03/21 01:08:36;;;;;;;11.45;3.47;;;;;;;10.25;77.30;99618.78;4998198;28;20042;-48
2023/03/21 01:11:20;;;;;;;8.15;3.00;;;;;;;10.24;76.86;99607.56;5001766;28;20073;-50
2023/03/21 01:13:47;;;;;;;6.00;3.38;;;;;;;10.22;76.55;99598.09;5003492;28;20424;-49
2023/03/21 01:16:23;;;;;;;5.30;3.00;;;;;;;10.22;77.05;99593.81;5008521;28;20050;-49
2023/03/21 01:18:50;;;;;;;4.38;3.42;;;;;;;10.22;76.57;99593.81;5000574;28;20116;-50
2023/03/21 01:21:18;;;;;;;5.30;3.05;;;;;;;10.21;76.42;99584.31;5002781;28;20073;-48
2023/03/21 01:23:46;;;;;;;5.65;3.58;;;;;;;10.14;76.71;99577.47;4998121;28;20054;-48
2023/03/21 01:26:15;;;;;;;4.32;1.30;;;;;;;10.22;76.95;99578.28;4997542;28;20666;-49
2023/03/21 01:28:44;;;;;;;10.65;3.05;;;;;;;10.20;77.27;99569.66;4996915;28;20041;-53
2023/03/21 01:31:18;;;;;;;3.78;2.80;;;;;;;10.21;76.82;99562.75;5002104;28;20129;-50
2023/03/21 01:33:46;;;;;;;8.05;2.75;;;;;;;10.20;77.17;99563.63;5003590;28;20051;-49
2023/03/21 01:36:20;;;;;;;4.18;2.55;;;;;;;10.15;76.90;99555.91;5013185;28;20104;-48
2023/03/21 01:38:51;;;;;;;5.63;3.72;;;;;;;10.12;76.72;99541.25;5007184;28;20056;-49
2023/03/21 01:44:06;;;;;;;7.32;2.00;;;;;;;10.09;76.98;99551.63;5042893;28;20385;-49
2023/03/21 01:51:55;;;;;;;7.55;2.38;;;;;;;10.11;76.96;99555.09;5044547;28;20430;-48
2023/03/21 01:54:36;;;;;;;5.13;1.13;;;;;;;10.06;77.11;99543.06;5000351;28;20485;-48
2023/03/21 01:57:08;;;;;;;3.22;1.55;;;;;;;10.06;77.38;99543.06;5028339;28;20164;-48
2023/03/21 02:02:19;;;;;;;5.93;2.10;;;;;;;10.03;76.99;99531.84;5022706;28;20404;-49
2023/03/21 02:04:50;;;;;;;6.65;1.88;;;;;;;10.02;77.49;99530.13;4972873;28;20042;-49
2023/03/21 02:07:27;;;;;;;5.40;1.80;;;;;;;10.00;77.38;99529.28;4973677;28;20109;-50
2023/03/21 02:09:55;;;;;;;6.80;2.83;;;;;;;10.03;76.99;99525.81;5010285;28;20078;-47
2023/03/21 02:12:22;;;;;;;3.67;1.83;;;;;;;9.97;77.67;99520.69;4970767;28;20051;-48
2023/03/21 02:14:50;;;;;;;7.30;1.67;;;;;;;10.01;76.85;99527.56;4975856;28;22044;-51
2023/03/21 02:17:26;;;;;;;5.20;1.55;;;;;;;10.03;76.88;99518.91;4974406;28;20514;-49
2023/03/21 02:42:15;;;;;;;2.75;1.13;;;;;;;10.00;77.30;99485.28;5012085;27;20415;-48
2023/03/21 02:50:08;;;;;;;5.10;2.38;;;;;;;9.98;77.33;99476.72;5066943;27;20420;-47
2023/03/21 02:52:36;;;;;;;4.72;2.25;;;;;;;9.97;76.70;99471.53;5041852;28;20045;-47
2023/03/21 02:55:12;;;;;;;3.47;2.60;;;;;;;9.98;76.75;99463.78;5034044;28;20053;-48
2023/03/21 02:57:42;;;;;;;5.72;2.42;;;;;;;9.98;76.45;99466.38;5042369;28;20056;-49
2023/03/21 03:00:15;;;;;;;5.07;3.67;;;;;;;9.94;76.85;99475.03;5057876;28;20076;-48
2023/03/21 03:02:43;;;;;;;8.02;2.33;;;;;;;9.94;77.21;99469.84;5059539;28;20082;-50
2023/03/21 03:05:30;;;;;;;4.30;2.35;;;;;;;9.92;76.92;99461.22;5060138;28;22001;-48
2023/03/21 03:11:04;;;;;;;6.22;3.75;;;;;;;9.91;77.04;99454.34;5025707;28;20419;-47
2023/03/21 03:16:26;;;;;;;5.10;1.63;;;;;;;9.96;76.74;99442.22;5061951;27;20726;-48
2023/03/21 03:18:57;;;;;;;5.35;1.95;;;;;;;9.97;77.31;99443.94;5019475;28;20045;-51
2023/03/21 03:24:58;;;;;;;7.05;3.58;;;;;;;9.93;77.19;99444.84;5035570;28;20407;-49
2023/03/21 03:27:42;;;;;;;6.00;2.75;;;;;;;9.97;76.77;99437.91;5043247;28;20086;-48
2023/03/21 03:30:11;;;;;;;5.70;4.03;;;;;;;9.96;77.31;99444.81;5039874;28;20076;-47
2023/03/21 03:32:47;;;;;;;8.20;2.83;;;;;;;9.96;77.22;99439.63;5040768;28;20073;-51
2023/03/21 03:35:17;;;;;;;6.32;3.95;;;;;;;9.96;76.89;99436.22;5055082;28;20135;-48
2023/03/21 03:37:48;;;;;;;5.50;3.20;;;;;;;9.94;77.48;99432.75;5039779;28;20783;-49
2023/03/21 03:40:22;;;;;;;7.32;3.40;;;;;;;9.91;77.85;99438.84;5058018;28;20077;-47
2023/03/21 03:42:52;;;;;;;7.15;3.35;;;;;;;9.93;77.24;99436.22;5048106;28;20069;-49
2023/03/21 03:45:25;;;;;;;4.75;3.47;;;;;;;9.95;77.81;99427.59;5057959;28;20048;-50
2023/03/21 03:50:33;;;;;;;8.40;2.08;;;;;;;9.94;77.65;99433.63;5073563;27;20411;-50
2023/03/21 03:53:22;;;;;;;4.63;2.67;;;;;;;9.91;77.25;99428.47;5046112;28;20102;-49
2023/03/21 03:55:50;;;;;;;5.35;1.83;;;;;;;9.94;78.01;99422.41;5042615;28;20041;-48
2023/03/21 03:58:19;;;;;;;5.25;1.85;;;;;;;9.96;77.70;99421.53;5042554;28;20826;-48
2023/03/21 04:00:52;;;;;;;5.88;1.52;;;;;;;9.95;77.80;99414.66;5037714;28;20501;-48
2023/03/21 04:03:19;;;;;;;2.25;1.15;;;;;;;9.95;77.58;99414.66;5044785;28;20493;-48
2023/03/21 04:05:46;;;;;;;7.18;1.95;;;;;;;9.95;77.88;99404.31;5038673;28;20072;-52
2023/03/21 04:08:14;;;;;;;4.05;1.15;;;;;;;9.89;77.70;99406.94;5031802;28;20155;-51
2023/03/21 04:10:41;;;;;;;4.80;1.60;;;;;;;9.86;78.07;99400.06;5031957;28;20404;-49
2023/03/21 04:13:09;;;;;;;5.05;1.88;;;;;;;9.87;78.32;99400.94;5035399;28;20126;-49
2023/03/21 04:15:36;;;;;;;3.35;1.35;;;;;;;9.90;77.97;99401.75;5050152;28;20053;-50
2023/03/21 04:18:02;;;;;;;4.40;1.60;;;;;;;9.90;78.29;99406.09;5037941;28;20045;-51
2023/03/21 04:20:29;;;;;;;7.28;2.10;;;;;;;9.85;77.94;99405.25;5032709;28;20076;-51
2023/03/21 04:23:03;;;;;;;2.75;1.42;;;;;;;9.81;78.69;99395.81;5034411;28;20107;-53
2023/03/21 04:25:33;;;;;;;8.57;1.63;;;;;;;9.82;78.68;99392.34;5035320;28;20057;-49
2023/03/21 04:28:00;;;;;;;9.50;1.63;;;;;;;9.82;78.08;99392.34;5035267;28;20493;-49
2023/03/21 04:30:27;;;;;;;5.28;1.95;;;;;;;9.74;78.38;99390.72;5035457;28;21538;-49
2023/03/21 04:32:55;;;;;;;4.18;1.50;;;;;;;9.80;78.23;99383.75;5033141;28;21404;-47
2023/03/21 04:35:23;;;;;;;5.43;1.75;;;;;;;9.85;77.84;99387.16;5034675;28;20720;-48
2023/03/21 04:37:50;;;;;;;7.50;1.83;;;;;;;9.83;78.54;99388.91;5033405;28;20076;-49
2023/03/21 04:40:17;;;;;;;5.47;2.30;;;;;;;9.85;78.27;99392.31;5035818;28;20068;-50
2023/03/21 04:42:46;;;;;;;8.30;2.55;;;;;;;9.84;78.20;99386.31;5038643;28;20058;-49
2023/03/21 04:45:15;;;;;;;3.45;2.20;;;;;;;9.80;78.71;99381.19;5037482;28;20071;-49
2023/03/21 04:47:41;;;;;;;5.30;1.45;;;;;;;9.80;78.55;99376.00;5032793;28;20065;-49
2023/03/21 04:50:09;;;;;;;4.28;1.20;;;;;;;9.77;78.11;99369.97;5035007;28;20593;-47
2023/03/21 04:52:36;;;;;;;2.85;1.58;;;;;;;9.80;78.73;99363.06;5033609;28;20073;-48
2023/03/21 04:55:03;;;;;;;2.75;1.40;;;;;;;9.77;78.53;99369.97;5030501;28;20085;-49
2023/03/21 04:57:29;;;;;;;5.10;1.48;;;;;;;9.75;78.66;99361.41;5037582;28;20045;-49
2023/03/21 04:59:56;;;;;;;6.15;1.80;;;;;;;9.77;78.25;99357.03;5037233;28;20041;-50
2023/03/21 05:02:23;;;;;;;9.68;1.70;;;;;;;9.80;78.42;99360.50;5028790;28;20558;-49
2023/03/21 05:04:49;;;;;;;3.78;1.27;;;;;;;9.80;78.76;99360.50;5028083;28;20050;-48
2023/03/21 05:07:16;;;;;;;3.42;1.38;;;;;;;9.80;78.48;99361.34;5026413;28;20096;-49
2023/03/21 05:09:42;;;;;;;2.90;1.52;;;;;;;9.80;78.76;99342.38;5027133;28;20128;-49
2023/03/21 05:12:09;;;;;;;2.47;1.20;;;;;;;9.80;78.75;99337.22;5024985;28;20046;-48
2023/03/21 05:14:36;;;;;;;2.67;1.25;;;;;;;9.78;78.76;99339.81;5022233;28;20083;-49
2023/03/21 05:17:03;;;;;;;5.45;1.27;;;;;;;9.77;78.65;99333.78;5023261;28;20045;-50
2023/03/21 05:19:34;;;;;;;4.25;0.95;;;;;;;9.71;78.62;99339.03;5023756;28;20057;-48
2023/03/21 05:22:08;;;;;;;3.97;1.55;;;;;;;9.69;78.78;99330.41;5024229;28;20049;-48
2023/03/21 05:24:38;;;;;;;4.35;1.83;;;;;;;9.75;79.01;99325.19;5029109;28;20045;-48
2023/03/21 05:27:04;;;;;;;6.07;1.58;;;;;;;9.74;78.82;99322.63;5025232;28;20572;-49
2023/03/21 05:29:32;;;;;;;3.78;1.83;;;;;;;9.73;78.92;99321.75;5024935;28;20076;-49
2023/03/21 05:32:00;;;;;;;4.43;1.73;;;;;;;9.71;79.02;99315.75;5018256;28;20456;-51
2023/03/21 05:34:27;;;;;;;5.57;1.45;;;;;;;9.75;78.80;99311.38;5048370;28;20452;-50
2023/03/21 05:36:55;;;;;;;4.93;1.98;;;;;;;9.76;78.85;99321.72;4999040;28;20227;-49
2023/03/21 05:39:21;;;;;;;5.10;1.67;;;;;;;9.76;78.98;99321.72;5017780;28;20049;-49
2023/03/21 05:41:48;;;;;;;6.78;2.20;;;;;;;9.77;78.36;99320.84;5018761;28;20084;-49
2023/03/21 05:44:14;;;;;;;5.18;1.52;;;;;;;9.77;79.15;99318.25;5018619;28;20077;-49
2023/03/21 05:46:42;;;;;;;5.53;1.80;;;;;;;9.73;79.10;99318.31;5024606;28;20084;-49
2023/03/21 05:49:10;;;;;;;3.63;1.42;;;;;;;9.76;78.88;99310.50;5023698;28;20095;-50
2023/03/21 05:51:36;;;;;;;7.03;1.95;;;;;;;9.79;78.88;99314.81;5018242;28;20437;-48
2023/03/21 05:54:03;;;;;;;3.92;1.50;;;;;;;9.79;78.73;99307.06;5016537;28;20045;-48
2023/03/21 05:56:30;;;;;;;4.57;1.50;;;;;;;9.79;79.54;99312.22;5019825;28;20049;-51
2023/03/21 05:58:56;;;;;;;4.00;1.30;;;;;;;9.78;78.82;99306.19;5025262;28;20096;-49
2023/03/21 06:01:23;;;;;;;4.38;2.42;;;;;;;9.79;79.29;99304.47;5018733;28;20065;-49
2023/03/21 06:03:49;;;;;;;4.40;1.33;;;;;;;9.77;79.49;99302.75;5018013;28;20145;-48
2023/03/21 06:06:16;;;;;;;4.63;1.63;;;;;;;9.79;79.18;99304.47;5022799;28;20099;-49
2023/03/21 06:08:42;;;;;;;5.75;1.60;;;;;;;9.76;79.44;99306.22;5023876;28;20092;-49
2023/03/21 06:11:22;;;;;;;4.13;1.60;;;;;;;9.79;79.33;99301.88;5020984;28;20111;-49
2023/03/21 06:13:49;;;;;;;4.38;1.15;;;;;;;9.77;79.80;99315.66;5017987;28;20045;-50
2023/03/21 06:16:15;;;;;;;6.13;1.30;;;;;;;9.75;79.78;99303.63;5021677;28;20119;-49
2023/03/21 06:18:42;;;;;;;5.13;1.80;;;;;;;9.80;79.39;99299.28;5023304;28;20468;-48
2023/03/21 06:21:09;;;;;;;2.83;1.35;;;;;;;9.78;79.50;99298.44;5018857;28;20069;-50
2023/03/21 06:23:36;;;;;;;5.63;1.73;;;;;;;9.80;79.32;99301.00;5023199;28;20081;-49
2023/03/21 06:26:03;;;;;;;3.42;1.73;;;;;;;9.77;79.28;99305.31;5022807;28;20041;-50
2023/03/21 06:28:30;;;;;;;2.40;1.15;;;;;;;9.74;79.84;99307.97;5020522;28;20133;-49
2023/03/21 06:30:57;;;;;;;5.05;1.88;;;;;;;9.80;79.74;99306.19;5019234;28;20168;-52
2023/03/21 06:33:24;;;;;;;3.25;1.40;;;;;;;9.79;79.46;99301.88;5022454;28;20049;-49
2023/03/21 06:35:52;;;;;;;7.30;1.60;;;;;;;9.80;80.18;99298.41;5020213;28;20081;-49
2023/03/21 06:38:19;;;;;;;3.22;1.27;;;;;;;9.79;79.90;99299.31;5020115;28;20092;-49
2023/03/21 06:40:46;;;;;;;2.95;1.48;;;;;;;9.71;80.78;99302.81;5021500;28;20728;-49
2023/03/21 06:43:15;;;;;;;2.38;1.15;;;;;;;9.75;80.50;99314.84;5022204;28;20083;-49
2023/03/21 06:45:42;;;;;;;2.33;1.35;;;;;;;9.77;80.11;99314.84;5019685;28;20132;-50
2023/03/21 06:48:08;;;;;;;2.65;1.05;;;;;;;9.77;80.50;99318.25;5018195;28;21904;-50
2023/03/21 06:50:35;;;;;;;3.33;1.15;;;;;;;9.83;80.15;99316.50;5015192;28;20045;-48
2023/03/21 06:53:02;;;;;;;3.28;1.13;;;;;;;9.83;80.24;99319.09;5021352;28;20131;-50
2023/03/21 06:55:28;;;;;;;6.57;1.38;;;;;;;9.87;79.53;99313.00;5021622;28;20699;-52
2023/03/21 06:57:56;;;;;;;3.25;1.42;;;;;;;9.89;80.43;99308.66;5019817;28;20046;-48
2023/03/21 07:00:23;;;;;;;4.03;1.27;;;;;;;9.85;79.95;99306.97;5021140;28;20622;-49
2023/03/21 07:02:50;;;;;;;5.53;1.52;;;;;;;9.90;80.06;99312.97;5023990;28;20789;-50
2023/03/21 07:05:17;;;;;;;4.68;1.60;;;;;;;9.93;79.91;99312.06;5018579;28;20064;-48
2023/03/21 07:07:44;;;;;;;5.07;1.83;;;;;;;9.96;79.81;99307.69;5014616;28;20073;-49
2023/03/21 07:10:11;;;;;;;8.30;1.80;;;;;;;9.99;79.67;99299.91;5018487;28;20644;-49
2023/03/21 07:12:37;;;;;;;3.75;1.55;;;;;;;9.99;80.04;99302.50;5018815;28;20077;-51
2023/03/21 07:15:06;;;;;;;3.47;1.23;;;;;;;9.97;79.97;99299.06;5015028;28;20085;-50
2023/03/21 07:17:32;;;;;;;2.75;1.35;;;;;;;10.00;80.22;99304.19;5016077;28;20527;-49
2023/03/21 07:19:59;;;;;;;2.83;1.50;;;;;;;10.05;80.20;99292.94;5013788;28;20051;-49
2023/03/21 07:22:25;;;;;;;5.15;1.70;;;;;;;10.08;79.51;99296.34;5014642;28;20593;-50
2023/03/21 07:24:52;;;;;;;6.13;1.60;;;;;;;10.08;79.84;99291.19;5018163;28;20064;-50
2023/03/21 07:27:30;;;;;;;4.22;1.48;;;;;;;10.07;79.90;99288.59;5013960;28;20056;-51
2023/03/21 07:29:56;;;;;;;2.40;0.90;;;;;;;10.08;80.07;99290.31;5013576;28;20732;-49
2023/03/21 07:32:23;;;;;;;4.90;1.23;;;;;;;10.11;79.52;99291.16;5013956;28;20053;-50
2023/03/21 07:34:50;;;;;;;5.32;1.00;;;;;;;10.14;79.62;99287.66;5022580;28;20115;-49
2023/03/21 07:37:16;;;;;;;6.75;1.10;;;;;;;10.18;79.54;99281.56;5023481;28;20073;-49
2023/03/21 07:39:43;;;;;;;2.53;1.17;;;;;;;10.23;79.35;99282.34;5012052;28;20532;-50
2023/03/21 07:42:10;;;;;;;2.80;1.30;;;;;;;10.21;80.07;99276.34;5015365;28;20103;-50
2023/03/21 07:44:37;;;;;;;2.80;0.90;;;;;;;10.26;79.00;99284.91;5015521;28;20109;-49
2023/03/21 07:47:06;;;;;;;2.70;0.95;;;;;;;10.31;78.57;99284.84;5015230;28;20091;-48
2023/03/21 07:49:32;;;;;;;2.33;1.10;;;;;;;10.34;78.86;99286.53;5015925;28;20053;-51
2023/03/21 07:52:00;;;;;;;4.10;1.27;;;;;;;10.35;79.73;99288.22;5014227;28;20128;-48
2023/03/21 07:54:30;;;;;;;3.08;1.27;;;;;;;10.43;78.97;99293.31;5017040;28;20057;-51
2023/03/21 07:56:57;;;;;;;4.60;1.60;;;;;;;10.44;79.31;99298.47;5018998;28;20041;-48
2023/03/21 07:59:23;;;;;;;2.15;1.10;;;;;;;10.44;79.38;99292.44;5013961;28;20152;-50
2023/03/21 08:01:50;;;;;;;3.85;1.38;;;;;;;10.50;78.63;99288.03;5013829;28;20209;-48
2023/03/21 08:04:17;;;;;;;3.03;1.35;;;;;;;10.57;78.49;99295.72;5017668;28;20100;-48
2023/03/21 08:06:44;;;;;;;4.15;2.45;;;;;;;10.59;79.48;99292.22;5019336;28;20073;-52
2023/03/21 08:09:10;;;;;;;3.42;1.38;;;;;;;10.62;78.81;99288.75;5020640;28;20041;-50
2023/03/21 08:11:37;;;;;;;3.10;1.15;;;;;;;10.68;78.37;99296.44;5016505;28;20129;-50
2023/03/21 08:14:03;;;;;;;3.83;1.13;;;;;;;10.86;78.69;99290.09;5021618;28;20072;-49
2023/03/21 08:16:30;;;;;;;2.63;1.13;;;;;;;10.96;78.70;99295.97;5024072;28;20088;-50
2023/03/21 08:18:57;;;;;;;3.15;1.20;;;;;;;11.04;78.92;99294.13;5022893;28;20128;-51
2023/03/21 08:21:24;;;;;;;1.23;0.57;;;;;;;11.16;78.07;99287.00;5019172;28;20045;-49
2023/03/21 08:23:52;;;;;;;4.90;1.58;;;;;;;11.37;77.85;99284.91;5028797;28;20052;-50
2023/03/21 08:26:18;;;;;;;1.85;1.02;;;;;;;11.73;77.42;99277.31;5025302;28;20087;-48
2023/03/21 08:28:45;;;;;;;3.30;0.90;;;;;;;12.03;77.85;99280.16;5030729;28;20051;-48
2023/03/21 08:31:13;;;;;;;3.53;0.98;;;;;;;12.13;76.49;99275.66;5023779;28;20118;-52
2023/03/21 08:33:39;;;;;;;1.80;0.50;;;;;;;12.18;76.81;99283.34;5024477;28;20049;-48
2023/03/21 08:36:06;;;;;;;2.33;0.82;;;;;;;12.17;76.79;99281.66;5023051;28;20057;-49
2023/03/21 08:38:33;;;;;;;1.70;0.80;;;;;;;12.08;76.46;99275.78;5028729;28;20053;-50
2023/03/21 08:41:00;;;;;;;2.75;1.25;;;;;;;12.04;76.15;99273.22;5028486;28;20169;-52
2023/03/21 08:43:28;;;;;;;3.50;0.75;;;;;;;12.00;75.74;99267.25;5024021;28;20050;-49
2023/03/21 08:45:55;;;;;;;3.15;1.02;;;;;;;11.95;76.53;99263.91;5027822;28;20099;-51
2023/03/21 08:48:22;;;;;;;4.68;0.95;;;;;;;11.86;75.18;99257.19;5025264;28;20049;-48
2023/03/21 08:50:49;;;;;;;2.58;0.95;;;;;;;11.75;76.29;99254.78;5027321;28;20057;-50
2023/03/21 08:53:17;;;;;;;4.03;1.15;;;;;;;11.72;75.58;99265.22;5025981;28;20416;-52
2023/03/21 08:55:44;;;;;;;2.28;1.00;;;;;;;11.66;76.52;99254.97;5025837;28;20053;-49
2023/03/21 08:58:11;;;;;;;6.32;0.70;;;;;;;11.55;76.89;99263.81;5026561;28;20057;-48
2023/03/21 09:00:38;;;;;;;3.53;1.30;;;;;;;11.50;76.28;99264.78;5023931;28;20044;-49
2023/03/21 09:03:04;;;;;;;2.95;0.75;;;;;;;11.46;76.55;99269.19;5024180;28;20053;-50
2023/03/21 09:05:31;;;;;;;3.03;0.82;;;;;;;11.39;76.38;99265.00;5022584;28;20077;-51
2023/03/21 09:08:00;;;;;;;8.43;0.80;;;;;;;11.34;76.02;99259.06;5024495;28;20072;-47
2023/03/21 09:10:26;;;;;;;2.55;0.70;;;;;;;11.34;76.51;99259.91;5025361;28;20046;-49
2023/03/21 09:12:54;;;;;;;3.45;0.68;;;;;;;11.34;76.07;99264.25;5028116;28;20091;-48
2023/03/21 09:15:23;;;;;;;2.22;1.00;;;;;;;11.35;77.60;99261.59;5025194;28;20072;-47
2023/03/21 09:17:52;;;;;;;3.85;0.68;;;;;;;11.37;76.29;99257.25;5019123;28;20053;-47
2023/03/21 09:20:24;;;;;;;4.00;0.82;;;;;;;11.41;76.92;99260.63;5023330;28;20060;-48
2023/03/21 09:22:52;;;;;;;2.95;0.77;;;;;;;11.43;77.53;99253.69;5028972;28;20049;-48
2023/03/21 09:25:20;;;;;;;6.15;2.20;;;;;;;11.41;76.82;99245.06;5027857;28;20440;-51
2023/03/21 09:27:47;;;;;;;4.35;0.80;;;;;;;11.42;76.60;99241.63;5021847;28;20057;-49
2023/03/21 09:30:17;;;;;;;6.57;1.30;;;;;;;11.49;76.29;99238.03;5021229;28;20049;-49
2023/03/21 09:32:47;;;;;;;5.25;0.85;;;;;;;11.60;76.78;99239.53;5022542;28;20061;-48
2023/03/21 09:35:17;;;;;;;4.57;1.30;;;;;;;11.66;76.81;99239.41;5024919;28;20049;-48
2023/03/21 09:37:46;;;;;;;3.17;1.23;;;;;;;11.95;77.50;99240.53;5024382;28;20046;-49
2023/03/21 09:40:18;;;;;;;4.75;1.30;;;;;;;12.43;76.48;99236.06;5027145;28;20358;-50
2023/03/21 09:42:58;;;;;;;3.78;0.82;;;;;;;12.61;75.02;99234.78;5024514;28;20049;-50
2023/03/21 09:48:21;;;;;;;6.65;1.67;;;;;;;13.05;75.61;99221.56;4992828;27;20410;-50
2023/03/21 09:50:48;;;;;;;3.55;2.53;;;;;;;13.24;74.55;99218.44;4988254;28;20109;-51
2023/03/21 09:53:22;;;;;;;4.95;1.77;;;;;;;13.39;73.69;99218.91;4981989;28;20096;-49
2023/03/21 09:55:52;;;;;;;7.53;2.28;;;;;;;13.40;74.00;99223.25;4979379;28;20057;-52
2023/03/21 10:01:20;;;;;;;1.15;0.50;;;;;;;13.36;73.20;99214.66;5072483;27;20398;-49
2023/03/21 10:03:49;;;;;;;4.45;1.20;;;;;;;13.37;73.71;99209.41;5020168;28;20064;-48
2023/03/21 10:06:17;;;;;;;3.85;0.73;;;;;;;13.26;73.02;99211.47;5037114;28;20836;-49
2023/03/21 10:08:46;;;;;;;5.78;1.80;;;;;;;13.17;72.75;99206.53;5037875;28;20574;-49
2023/03/21 10:11:20;;;;;;;3.00;0.80;;;;;;;13.24;73.30;99211.50;5035672;28;20524;-51
2023/03/21 10:14:03;;;;;;;6.00;1.02;;;;;;;13.30;73.70;99207.88;5038646;28;21403;-47
2023/03/21 10:16:33;;;;;;;2.08;1.00;;;;;;;13.29;73.71;99216.59;5039052;28;20690;-50
2023/03/21 10:19:06;;;;;;;2.70;1.42;;;;;;;13.31;73.63;99219.97;5033452;28;20057;-48
2023/03/21 10:21:38;;;;;;;2.15;0.75;;;;;;;13.26;73.28;99214.06;5031865;28;20061;-48
2023/03/21 10:24:27;;;;;;;5.75;1.67;;;;;;;13.24;73.77;99208.03;5036303;28;20045;-50
2023/03/21 10:26:55;;;;;;;6.88;1.92;;;;;;;13.22;73.38;99204.66;5038008;28;20046;-49
2023/03/21 10:29:28;;;;;;;3.65;0.63;;;;;;;13.19;73.38;99199.53;5037407;28;20041;-48
2023/03/21 10:31:55;;;;;;;3.58;1.35;;;;;;;13.23;72.92;99206.34;5038172;28;20055;-48
2023/03/21 10:34:34;;;;;;;5.20;1.02;;;;;;;13.29;73.65;99200.97;5032507;28;20053;-48
2023/03/21 10:37:02;;;;;;;3.92;0.77;;;;;;;13.67;73.57;99202.56;5033969;28;20052;-51
2023/03/21 10:39:47;;;;;;;3.72;0.85;;;;;;;14.00;72.89;99207.66;5033223;28;20045;-50
2023/03/21 10:42:25;;;;;;;1.70;0.85;;;;;;;14.43;72.78;99194.19;5034304;28;20135;-48
2023/03/21 10:44:55;;;;;;;2.90;1.25;;;;;;;14.71;72.06;99194.13;5016398;28;20095;-51
2023/03/21 10:47:29;;;;;;;5.25;1.65;;;;;;;15.02;71.85;99194.84;5032468;28;20053;-51
2023/03/21 10:50:07;;;;;;;2.45;0.80;;;;;;;15.35;70.82;99191.97;5032428;28;20500;-51
2023/03/21 10:52:43;;;;;;;3.17;1.05;;;;;;;15.58;69.38;99190.28;5027102;28;20057;-51
2023/03/21 10:55:30;;;;;;;2.70;0.80;;;;;;;15.50;69.11;99197.53;5030473;28;20041;-48
2023/03/21 10:58:18;;;;;;;4.82;1.60;;;;;;;15.30;68.10;99191.25;5033684;28;20057;-49
2023/03/21 11:00:46;;;;;;;3.15;1.25;;;;;;;15.26;68.25;99195.75;5029054;28;20673;-49
2023/03/21 11:03:30;;;;;;;3.15;0.80;;;;;;;15.32;67.77;99184.25;5028311;28;20420;-50
2023/03/21 11:08:49;;;;;;;3.65;1.10;;;;;;;15.60;67.56;99178.00;5071880;27;20982;-50
2023/03/21 11:11:24;;;;;;;1.85;0.50;;;;;;;15.67;65.68;99171.66;5074110;28;20044;-49
2023/03/21 11:14:05;;;;;;;2.30;0.60;;;;;;;15.80;66.38;99172.03;5108324;27;20095;-49
2023/03/21 11:16:42;;;;;;;1.42;0.60;;;;;;;15.87;65.86;99175.25;5090388;28;20052;-50
2023/03/21 11:19:18;;;;;;;1.67;0.77;;;;;;;15.80;65.41;99169.41;5075942;28;20057;-49
2023/03/21 11:21:45;;;;;;;2.50;0.70;;;;;;;15.77;64.49;99173.91;5074636;28;20045;-49
2023/03/21 11:24:15;;;;;;;1.23;0.63;;;;;;;15.89;64.78;99168.22;5060338;28;20139;-51
2023/03/21 11:26:43;;;;;;;;;;;;;;;16.04;65.58;99176.38;5073689;28;20300;-50
2023/03/21 11:32:15;;;;;;;1.65;0.93;;;;;;;16.42;64.73;99171.38;5085917;27;20400;-49
2023/03/21 11:37:25;;;;;;;3.08;2.13;;;;;;;16.66;63.43;99184.34;5096985;27;20391;-50
2023/03/21 11:39:56;;;;;;;4.32;1.67;;;;;;;16.68;62.73;99192.97;5039362;28;20049;-52
2023/03/21 11:42:26;;;;;;;4.20;2.53;;;;;;;16.60;61.75;99189.81;5062506;28;20519;-50
2023/03/21 11:45:01;;;;;;;3.83;1.88;;;;;;;16.45;62.40;99194.75;5071912;28;20562;-50
2023/03/21 11:47:28;;;;;;;4.43;0.77;;;;;;;16.34;61.96;99189.13;5054143;28;20400;-50
2023/03/21 11:49:55;;;;;;;1.10;0.60;;;;;;;16.29;62.79;99186.72;5071906;28;20413;-48
2023/03/21 11:52:40;;;;;;;3.13;2.15;;;;;;;16.31;62.50;99191.84;5063853;28;20511;-53
2023/03/21 12:00:28;;;;;;;6.03;0.93;;;;;;;16.31;61.49;99189.25;5037359;27;21576;-48
2023/03/21 12:05:35;;;;;;;5.00;3.08;;;;;;;16.37;62.35;99189.00;5016117;28;20430;-48
2023/03/21 12:13:35;;;;;;;2.08;0.45;;;;;;;16.25;60.83;99179.88;5054108;27;20374;-48
2023/03/21 12:27:44;;;;;;;8.50;3.15;;;;;;;16.26;60.70;99159.84;4976275;28;21293;-49
2023/03/21 12:39:25;;;;;;;2.22;0.70;;;;;;;16.35;60.34;99164.69;5014372;27;20410;-51
2023/03/21 12:42:27;;;;;;;6.72;2.97;;;;;;;16.34;61.02;99163.00;5013020;28;20144;-51
2023/03/21 12:45:01;;;;;;;3.53;0.85;;;;;;;16.27;60.37;99161.53;5038089;28;20065;-53
2023/03/21 12:47:41;;;;;;;3.20;0.73;;;;;;;16.27;60.72;99161.53;5019321;28;20042;-51
2023/03/21 12:50:28;;;;;;;4.88;0.70;;;;;;;16.26;60.29;99159.84;5015330;28;20490;-51
2023/03/21 12:53:00;;;;;;;2.22;0.77;;;;;;;16.23;60.98;99152.13;5012556;28;20513;-52
2023/03/21 12:55:31;;;;;;;4.43;0.40;;;;;;;16.24;60.67;99151.25;5010599;28;20042;-49
2023/03/21 12:58:05;;;;;;;2.78;0.82;;;;;;;16.22;60.72;99156.53;5016103;28;20524;-49
2023/03/21 13:03:33;;;;;;;4.35;0.95;;;;;;;16.03;60.75;99149.41;5017850;27;20411;-49
2023/03/21 13:06:09;;;;;;;0.60;0.30;;;;;;;16.00;60.64;99159.13;5015375;28;20050;-49
2023/03/21 13:08:40;;;;;;;3.53;0.95;;;;;;;15.80;60.40;99158.13;5014811;28;20041;-50
2023/03/21 13:11:12;;;;;;;4.53;0.75;;;;;;;15.66;60.90;99150.81;5016049;28;20052;-49
2023/03/21 13:13:48;;;;;;;3.45;1.13;;;;;;;15.54;61.59;99159.97;5047887;28;20133;-50
2023/03/21 13:27:20;;;;;;;1.15;0.65;;;;;;;15.64;61.50;99147.44;5012527;28;20410;-50
2023/03/21 13:29:50;;;;;;;6.95;2.20;;;;;;;15.63;62.67;99154.41;4998888;28;20108;-51
2023/03/21 13:32:36;;;;;;;5.40;0.85;;;;;;;15.51;61.92;99144.44;5000343;28;20062;-50
2023/03/21 13:35:19;;;;;;;1.70;0.73;;;;;;;15.60;61.78;99135.41;4998314;28;20046;-50
2023/03/21 13:37:52;;;;;;;2.00;0.80;;;;;;;15.70;62.15;99135.91;5003049;28;20561;-51
2023/03/21 13:40:23;;;;;;;1.58;0.50;;;;;;;15.73;61.06;99135.75;4996368;28;20101;-49
2023/03/21 13:42:54;;;;;;;1.00;0.43;;;;;;;15.76;61.61;99130.44;5030091;28;20061;-48